WetterOnline ( https://www.wetteronline.de )

Wetter aktuell Prenzlau

Aktuelles Wetter: Grünow (57m)

6-stündlich | Neueste Meldungen
Ortszeit Temperatur Wetter
Sa, 29.01. 7:00 2.9° C leichter Regen
Sa, 29.01. 1:00 0.8° C bewölkt
Fr, 28.01. 19:00 0.6° C bedeckt
Fr, 28.01. 13:00 6.0° C wolkenlos
Fr, 28.01. 7:00 3.8° C fast wolkenlos
Fr, 28.01. 1:00 4.9° C leichter Regen
Do, 27.01. 19:00 5.6° C leicht bewölkt
Do, 27.01. 13:00 4.4° C Sprühregen
Ortszeit Temperatur Wetter
Sa, 29.01. 12:00 4.9° C bedeckt
Sa, 29.01. 11:50 4.9° C Dunst
Sa, 29.01. 11:40 4.7° C Dunst
Sa, 29.01. 11:30 4.5° C bedeckt
Sa, 29.01. 11:20 4.5° C Dunst
Sa, 29.01. 11:10 4.4° C Dunst
Sa, 29.01. 11:00 4.3° C Regen
Sa, 29.01. 10:30 4.1° C leichter Regen
Sa, 29.01. 10:00 3.9° C leichter Regen
Sa, 29.01. 9:30 3.7° C Regen
Sa, 29.01. 9:00 3.6° C leichter Regen
Ortszeit Relative Feuchte Sichtweite
Sa, 29.01. 7:00 94% 10 km
Sa, 29.01. 1:00 90% 25 km
Fr, 28.01. 19:00 74% 60 km
Fr, 28.01. 13:00 61% >70 km
Fr, 28.01. 7:00 76% 24 km
Fr, 28.01. 1:00 76% 29 km
Do, 27.01. 19:00 79% 35 km
Do, 27.01. 13:00 91% 11 km
Ortszeit Relative Feuchte Sichtweite
Sa, 29.01. 12:00 98% 5.0 km
Sa, 29.01. 11:50 98% -
Sa, 29.01. 11:40 98% -
Sa, 29.01. 11:30 97% 4.8 km
Sa, 29.01. 11:20 97% -
Sa, 29.01. 11:10 97% -
Sa, 29.01. 11:00 96% 9 km
Sa, 29.01. 10:30 97% 4.0 km
Sa, 29.01. 10:00 96% 5.0 km
Sa, 29.01. 9:30 96% 7 km
Sa, 29.01. 9:00 94% 8 km
Ortszeit Niederschlagsmenge Niederschlagsart
Sa, 29.01. 7:00 0.3 l/m2 in 12 Std. Regen
Sa, 29.01. 1:00 0.0 l/m2 in 6 Std. -
Fr, 28.01. 19:00 0.0 l/m2 in 12 Std. -
Fr, 28.01. 13:00 0.0 l/m2 in 6 Std. -
Fr, 28.01. 7:00 0.3 l/m2 in 12 Std. Regen
Fr, 28.01. 1:00 0.3 l/m2 in 6 Std. Regen
Do, 27.01. 19:00 0.1 l/m2 in 12 Std. Regen
Do, 27.01. 13:00 0.1 l/m2 in 6 Std. Regen
Ortszeit Niederschlagsmenge Niederschlagsart
Sa, 29.01. 12:00 0.1 l/m2 in 1 Std. Sprühregen
Sa, 29.01. 11:50 keine Meldung -
Sa, 29.01. 11:40 keine Meldung -
Sa, 29.01. 11:30 0.0 l/m2 in 1 Std. -
Sa, 29.01. 11:20 keine Meldung -
Sa, 29.01. 11:10 keine Meldung -
Sa, 29.01. 11:00 0.3 l/m2 in 1 Std. Regen
Sa, 29.01. 10:30 0.3 l/m2 in 1 Std. -
Sa, 29.01. 10:00 1.7 l/m2 in 1 Std. Regen
Sa, 29.01. 9:30 0.9 l/m2 in 1 Std. -
Sa, 29.01. 9:00 0.9 l/m2 in 1 Std. Regen
Ortszeit Stärke Spitze Richtung
km/h Bft. km/h Grad Sektor
Sa, 29.01. 7:00 28 4 37 230° SW
Sa, 29.01. 1:00 11 2 22 210° SW
Fr, 28.01. 19:00 13 3 56 290° W
Fr, 28.01. 13:00 33 5 54 330° NW
Fr, 28.01. 7:00 37 5 70 300° NW
Fr, 28.01. 1:00 39 6 67 290° W
Do, 27.01. 19:00 35 5 54 270° W
Do, 27.01. 13:00 30 5 50 250° W
Ortszeit Stärke Spitze Richtung
km/h Bft. km/h Grad Sektor
Sa, 29.01. 12:00 24 4 37 240° SW
Sa, 29.01. 11:50 24 4 - 240° SW
Sa, 29.01. 11:40 24 4 - 230° SW
Sa, 29.01. 11:30 28 4 37 230° SW
Sa, 29.01. 11:20 28 4 - 230° SW
Sa, 29.01. 11:10 29 5 - 230° SW
Sa, 29.01. 11:00 26 4 39 230° SW
Sa, 29.01. 10:30 26 4 39 220° SW
Sa, 29.01. 10:00 28 4 43 220° SW
Sa, 29.01. 9:30 29 5 43 220° SW
Sa, 29.01. 9:00 30 5 43 220° SW
Ortszeit Untergrenze Bedeckung Gattung
total tief tief mittel hoch
Sa, 29.01. 7:00 270 m 8/8 8/8 - - -
Sa, 29.01. 1:00 2100 m 7/8 7/8 - - -
Fr, 28.01. 19:00 5400 m 8/8 8/8 - - -
Fr, 28.01. 13:00 - 0/8 0/8 - - -
Fr, 28.01. 7:00 900 m 1/8 1/8 - - -
Fr, 28.01. 1:00 600 m 8/8 8/8 - - -
Do, 27.01. 19:00 1260 m 4/8 4/8 - - -
Do, 27.01. 13:00 300 m 8/8 8/8 - - -
Ortszeit Bedeckungsgrad in Achtel und Wolkenuntergrenze
Sa, 29.01. 12:00 8(150m)
Sa, 29.01. 11:50 8(150m)
Sa, 29.01. 11:40 8
Sa, 29.01. 11:30 8(150m)
Sa, 29.01. 11:20 8(150m)
Sa, 29.01. 11:10 8
Sa, 29.01. 11:00 8(210m)
Sa, 29.01. 10:30 7(240m) 8(330m)
Sa, 29.01. 10:00 7(240m)
Sa, 29.01. 9:30 8(270m)
Sa, 29.01. 9:00 7(270m)
Ortszeit Luftdruck NN (hPa) Tendenz (hPa in 3 Std.)
Sa, 29.01. 7:00 1018 - 4,3
Sa, 29.01. 1:00 1025 - 2,0
Fr, 28.01. 19:00 1028 + 1,7
Fr, 28.01. 13:00 1023 + 3,0
Fr, 28.01. 7:00 1015 + 3,5
Fr, 28.01. 1:00 1009 + 0,7
Do, 27.01. 19:00 1008 - 1,1
Do, 27.01. 13:00 1011 - 1,5
Ortszeit Luftdruck NN (hPa) Tendenz (hPa in 3 Std.)
Sa, 29.01. 12:00 1012 - 3,2
Sa, 29.01. 11:50 1012 keine Meldung
Sa, 29.01. 11:40 1012 keine Meldung
Sa, 29.01. 11:30 1012 - 3,6
Sa, 29.01. 11:20 1012 keine Meldung
Sa, 29.01. 11:10 1012 keine Meldung
Sa, 29.01. 11:00 1013 - 3,8
Sa, 29.01. 10:30 1013 - 4,1
Sa, 29.01. 10:00 1014 - 3,8
Sa, 29.01. 9:30 1015 - 3,7
Sa, 29.01. 9:00 1015 - 4,1
Ortszeit Schneehöhe (cm)
Sa, 29.01. 7:00 0
Sa, 29.01. 1:00 0
Fr, 28.01. 19:00 0
Fr, 28.01. 13:00 0
Fr, 28.01. 7:00 0
Fr, 28.01. 1:00 0
Do, 27.01. 19:00 0
Do, 27.01. 13:00 0
Ortszeit Schneehöhe (cm)
Sa, 29.01. 12:00 0
Sa, 29.01. 11:50 0
Sa, 29.01. 11:40 0
Sa, 29.01. 11:30 0
Sa, 29.01. 11:20 0
Sa, 29.01. 11:10 0
Sa, 29.01. 11:00 0
Sa, 29.01. 10:30 0
Sa, 29.01. 10:00 0
Sa, 29.01. 9:30 0
Sa, 29.01. 9:00 0
Link zu dieser Seite / Seite empfehlen

Das Wetter in ...